Time;durP1;ratioP1;P1;durP2;ratioP2;P2;SDS_P1;SDS_P2;PMS_P1;PMS_P2;Temp;Humidity;BMP_temperature;BMP_pressure;BME280_temperature;BME280_humidity;BME280_pressure;Samples;Min_cycle;Max_cycle;Signal;HPM_P1;HPM_P2
2023/05/06 00:01:55;;;;;;;;;0.33;0.33;;;;;25.57;39.82;101433.13;5079221;28;45256;-84
2023/05/06 00:04:20;;;;;;;;;0.33;0.33;;;;;25.52;39.62;101426.53;5079132;28;45368;-83
2023/05/06 00:06:47;;;;;;;;;0.33;0.33;;;;;25.49;39.40;101423.41;5078878;28;45551;-83
2023/05/06 00:09:13;;;;;;;;;0.33;0.33;;;;;25.58;39.33;101434.78;5079038;27;46314;-84
2023/05/06 00:11:38;;;;;;;;;0.00;0.00;;;;;25.54;39.63;101428.16;5078947;27;45424;-84
2023/05/06 00:14:03;;;;;;;;;1.00;1.00;;;;;25.58;39.46;101434.78;5079019;28;45324;-83
2023/05/06 00:16:29;;;;;;;;;0.67;0.00;;;;;25.46;39.74;101421.94;5079030;28;45345;-84
2023/05/06 00:18:54;;;;;;;;;0.00;0.00;;;;;25.57;39.47;101425.13;5078708;28;46275;-84
2023/05/06 00:21:20;;;;;;;;;0.00;0.00;;;;;25.31;39.44;101391.88;5078857;28;45443;-85
2023/05/06 00:23:45;;;;;;;;;0.33;0.33;;;;;25.54;39.57;101428.16;5077449;27;45456;-84
2023/05/06 00:26:10;;;;;;;;;0.00;0.00;;;;;25.46;39.44;101413.13;5078477;28;45515;-82
2023/05/06 00:28:36;;;;;;;;;0.00;0.00;;;;;25.57;39.47;101433.94;5078259;27;46090;-85
2023/05/06 00:31:01;;;;;;;;;0.33;0.33;;;;;25.45;39.50;101408.84;5078651;27;45391;-84
2023/05/06 00:33:26;;;;;;;;;0.67;0.67;;;;;25.54;39.49;101429.00;5078723;27;45469;-84
2023/05/06 00:35:52;;;;;;;;;0.00;0.00;;;;;25.50;39.62;101425.88;5079078;28;45356;-84
2023/05/06 00:38:18;;;;;;;;;0.00;0.00;;;;;25.58;39.52;101437.44;5078454;28;47338;-83
2023/05/06 00:40:44;;;;;;;;;0.00;0.00;;;;;25.52;39.31;101429.19;5078404;28;45491;-84
2023/05/06 00:43:10;;;;;;;;;0.33;0.33;;;;;25.48;39.41;101419.91;5079163;27;45309;-84
2023/05/06 00:45:36;;;;;;;;;1.67;0.33;;;;;25.51;39.22;101419.53;5078464;27;45404;-84
2023/05/06 00:48:03;;;;;;;;;0.00;0.00;;;;;25.55;39.47;101416.50;5078032;28;45317;-84
2023/05/06 00:50:30;;;;;;;;;0.00;0.00;;;;;25.32;39.35;101386.34;5078745;27;45314;-84
2023/05/06 00:52:57;;;;;;;;;0.00;0.00;;;;;25.47;39.27;101412.13;5078274;28;45249;-85
2023/05/06 00:55:23;;;;;;;;;0.33;0.33;;;;;25.49;39.49;101413.59;5077900;27;45764;-84
2023/05/06 00:57:49;;;;;;;;;0.00;0.00;;;;;25.52;39.52;101421.22;5078206;28;46938;-84
2023/05/06 01:00:15;;;;;;;;;0.33;0.33;;;;;25.52;39.21;101417.72;5078121;28;45452;-85
2023/05/06 01:02:41;;;;;;;;;0.00;0.00;;;;;25.40;39.17;101396.06;5078487;28;45304;-84
2023/05/06 01:05:08;;;;;;;;;0.00;0.00;;;;;25.48;39.57;101403.09;5078342;27;45419;-84
2023/05/06 01:07:49;;;;;;;;;2.00;2.00;;;;;25.37;39.59;101391.94;5078145;28;47377;-85
2023/05/06 01:10:26;;;;;;;;;0.67;0.00;;;;;25.51;39.47;101418.72;5077775;28;45361;-85
2023/05/06 01:13:07;;;;;;;;;0.00;0.00;;;;;25.50;39.48;101414.41;5078164;27;45264;-84
2023/05/06 01:15:39;;;;;;;;;0.33;0.33;;;;;25.09;39.43;101343.94;5077747;27;45578;-84
2023/05/06 01:18:09;;;;;;;;;0.00;0.00;;;;;25.39;39.39;101389.94;5078100;28;46369;-84
2023/05/06 01:20:37;;;;;;;;;0.00;0.00;;;;;25.26;39.49;101364.00;5077992;28;45355;-84
2023/05/06 01:23:06;;;;;;;;;2.33;0.00;;;;;25.44;39.24;101391.19;5078080;27;45343;-84
2023/05/06 01:25:32;;;;;;;;;1.00;1.00;;;;;25.52;39.43;101405.22;5077543;28;45549;-84
2023/05/06 01:27:58;;;;;;;;;0.33;0.00;;;;;25.46;39.83;101397.97;5077388;27;46169;-84
2023/05/06 01:30:30;;;;;;;;;0.33;0.00;;;;;25.52;39.32;101404.38;5077826;27;45398;-83
2023/05/06 01:33:08;;;;;;;;;0.00;0.00;;;;;25.48;39.27;101403.09;5077644;27;45466;-84
2023/05/06 01:35:52;;;;;;;;;2.00;1.00;;;;;25.22;39.37;101351.22;5077309;27;45494;-84
2023/05/06 01:38:36;;;;;;;;;0.00;0.00;;;;;25.51;39.39;101408.06;5058913;28;46598;-83
2023/05/06 01:41:02;;;;;;;;;0.67;0.33;;;;;25.39;39.25;101383.78;5077116;27;45481;-84
2023/05/06 01:43:33;;;;;;;;;0.00;0.00;;;;;25.41;39.53;101381.75;5077249;28;45389;-84
2023/05/06 01:46:00;;;;;;;;;0.67;0.33;;;;;25.47;39.36;101394.31;5077641;28;45564;-82
2023/05/06 01:48:28;;;;;;;;;0.00;0.00;;;;;25.46;39.10;101394.47;5077189;27;46281;-83
2023/05/06 01:50:54;;;;;;;;;0.00;0.00;;;;;25.43;39.37;101390.34;5077179;27;45486;-85
2023/05/06 01:53:20;;;;;;;;;0.67;0.00;;;;;25.49;39.31;101402.09;5077242;28;45273;-85
2023/05/06 01:55:45;;;;;;;;;1.33;0.00;;;;;25.40;39.61;101390.72;5077499;27;45324;-84
2023/05/06 01:58:10;;;;;;;;;0.33;0.33;;;;;25.49;39.43;101405.59;5077254;28;46141;-84
2023/05/06 02:00:38;;;;;;;;;1.00;0.67;;;;;25.47;39.52;101402.31;5077266;28;45348;-84
2023/05/06 02:03:03;;;;;;;;;1.00;1.00;;;;;25.47;39.59;101401.47;5077364;27;45281;-84
2023/05/06 02:05:28;;;;;;;;;0.00;0.00;;;;;25.36;39.73;101381.47;5076965;28;45423;-84
2023/05/06 02:07:54;;;;;;;;;0.33;0.33;;;;;25.47;39.67;101404.13;5076704;27;46072;-85
2023/05/06 02:10:19;;;;;;;;;1.33;0.00;;;;;25.13;39.30;101347.88;5076863;28;56170;-85
2023/05/06 02:12:45;;;;;;;;;0.00;0.00;;;;;25.37;39.91;101383.16;5076986;27;45405;-85
2023/05/06 02:15:10;;;;;;;;;3.00;1.00;;;;;25.43;39.32;101398.34;5077041;28;45557;-85
2023/05/06 02:17:37;;;;;;;;;1.33;0.00;;;;;25.38;39.39;101388.28;5076576;28;45607;-84
2023/05/06 02:20:02;;;;;;;;;2.00;1.00;;;;;25.23;39.36;101355.53;5077085;28;45368;-84
2023/05/06 02:22:28;;;;;;;;;0.00;0.00;;;;;25.33;39.45;101385.34;5076560;28;45471;-84
2023/05/06 02:24:53;;;;;;;;;0.33;0.33;;;;;25.46;39.40;101397.16;5076911;27;45440;-84
2023/05/06 02:27:18;;;;;;;;;1.33;1.00;;;;;25.37;39.33;101391.94;5058603;28;47972;-84
2023/05/06 02:29:44;;;;;;;;;1.67;0.33;;;;;25.49;39.25;101402.09;5076697;27;45434;-84
2023/05/06 02:32:09;;;;;;;;;1.00;1.00;;;;;25.48;39.34;101403.94;5076562;28;45316;-83
2023/05/06 02:34:34;;;;;;;;;1.00;1.00;;;;;25.48;39.46;101403.94;5076567;28;45470;-84
2023/05/06 02:37:00;;;;;;;;;5.00;1.00;;;;;25.25;39.12;101362.34;5076383;28;46333;-84
2023/05/06 02:39:25;;;;;;;;;0.00;0.00;;;;;25.36;39.44;101382.31;5076343;28;45454;-84
2023/05/06 02:41:50;;;;;;;;;0.00;0.00;;;;;25.46;39.38;101390.00;5076411;28;45387;-84
2023/05/06 02:44:16;;;;;;;;;1.33;0.00;;;;;25.40;39.28;101378.25;5076402;27;45476;-84
2023/05/06 02:46:42;;;;;;;;;0.00;0.00;;;;;25.40;39.09;101380.91;5076226;28;45404;-84
2023/05/06 02:49:08;;;;;;;;;0.00;0.00;;;;;25.46;39.25;101384.66;5076440;28;45237;-84
2023/05/06 02:51:33;;;;;;;;;1.00;1.00;;;;;25.43;39.21;101381.53;5076188;27;45323;-84
2023/05/06 02:53:58;;;;;;;;;0.00;0.00;;;;;25.32;39.03;101364.25;5076836;27;45268;-85
2023/05/06 02:56:24;;;;;;;;;1.00;0.33;;;;;25.45;39.69;101384.84;5076265;28;46587;-84
2023/05/06 02:58:50;;;;;;;;;0.00;0.00;;;;;25.35;39.43;101372.66;5076334;28;45219;-84
2023/05/06 03:01:15;;;;;;;;;0.00;0.00;;;;;25.45;39.40;101383.00;5076449;28;45221;-85
2023/05/06 03:03:40;;;;;;;;;0.33;0.33;;;;;25.44;39.45;101375.22;5076337;27;45450;-84
2023/05/06 03:06:06;;;;;;;;;1.00;1.00;;;;;25.44;39.10;101372.53;5075675;28;46044;-84
2023/05/06 03:08:31;;;;;;;;;0.00;0.00;;;;;25.43;39.07;101373.53;5076423;28;45414;-85
2023/05/06 03:10:57;;;;;;;;;3.67;0.33;;;;;25.32;39.22;101362.38;5076335;28;45348;-85
2023/05/06 03:13:22;;;;;;;;;0.33;0.33;;;;;25.34;39.07;101364.88;5076192;28;45353;-85
2023/05/06 03:15:55;;;;;;;;;0.33;0.33;;;;;25.33;39.53;101361.38;5075979;27;46369;-84
2023/05/06 03:18:20;;;;;;;;;0.67;0.67;;;;;25.45;39.13;101368.88;5076054;27;45354;-84
2023/05/06 03:20:47;;;;;;;;;0.67;0.67;;;;;25.33;39.45;101355.22;5075870;28;45466;-84
2023/05/06 03:23:13;;;;;;;;;1.00;1.00;;;;;25.44;39.23;101370.72;5076325;28;45428;-85
2023/05/06 03:25:38;;;;;;;;;0.67;0.33;;;;;25.45;39.13;101372.34;5075795;27;45410;-85
2023/05/06 03:28:04;;;;;;;;;1.33;0.00;;;;;25.22;39.16;101337.91;5076059;28;45399;-84
2023/05/06 03:30:29;;;;;;;;;0.33;0.00;;;;;25.46;39.21;101375.84;5076010;28;45321;-84
2023/05/06 03:32:55;;;;;;;;;1.00;0.67;;;;;25.42;39.35;101366.59;5075901;28;45401;-84
2023/05/06 03:35:21;;;;;;;;;0.00;0.00;;;;;25.46;39.32;101374.00;5075762;28;47306;-84
2023/05/06 03:37:46;;;;;;;;;0.00;0.00;;;;;25.46;39.15;101368.69;5075802;28;45278;-84
2023/05/06 03:40:12;;;;;;;;;0.33;0.33;;;;;25.44;39.25;101367.22;5075723;28;45312;-85
2023/05/06 03:42:37;;;;;;;;;0.00;0.00;;;;;25.45;39.24;101375.00;5075751;28;45449;-84
2023/05/06 03:45:05;;;;;;;;;0.33;0.33;;;;;25.43;39.18;101369.06;5075462;28;45374;-84
2023/05/06 03:47:31;;;;;;;;;1.67;1.00;;;;;25.24;39.27;101339.38;5075981;27;45344;-84
2023/05/06 03:49:56;;;;;;;;;1.00;1.00;;;;;25.44;39.22;101372.53;5075431;28;45423;-84
2023/05/06 03:52:21;;;;;;;;;0.33;0.33;;;;;25.43;39.32;101376.22;5075565;28;45280;-85
2023/05/06 03:54:47;;;;;;;;;1.00;1.00;;;;;25.33;39.29;101356.06;5075057;27;46603;-85
2023/05/06 03:57:12;;;;;;;;;3.00;2.00;;;;;25.42;39.14;101370.09;5076906;27;45337;-84
2023/05/06 03:59:37;;;;;;;;;0.00;0.00;;;;;25.42;39.08;101367.41;5079195;28;45380;-85
2023/05/06 04:02:03;;;;;;;;;0.67;0.67;;;;;25.31;39.36;101352.75;5078895;28;45417;-84
2023/05/06 04:04:28;;;;;;;;;1.00;0.00;;;;;25.29;39.43;101347.63;5078458;27;46246;-84
2023/05/06 04:06:54;;;;;;;;;0.33;0.33;;;;;25.35;39.35;101362.00;5078924;28;45378;-85
2023/05/06 04:09:19;;;;;;;;;0.00;0.00;;;;;25.37;39.08;101361.84;5079249;27;45352;-85
2023/05/06 04:11:44;;;;;;;;;0.67;0.67;;;;;25.42;39.25;101370.09;5078626;27;51494;-85
2023/05/06 04:14:10;;;;;;;;;1.00;1.00;;;;;25.32;39.12;101351.72;5078769;28;46518;-85
2023/05/06 04:16:35;;;;;;;;;1.00;0.33;;;;;25.42;39.05;101370.09;5060908;28;45409;-84
2023/05/06 04:19:02;;;;;;;;;0.33;0.33;;;;;25.38;39.22;101368.78;5078891;28;45526;-84
2023/05/06 04:21:28;;;;;;;;;0.00;0.00;;;;;25.25;39.43;101343.69;5078916;28;45355;-84
2023/05/06 04:23:54;;;;;;;;;0.00;0.00;;;;;25.18;38.86;101329.50;5078413;28;46198;-84
2023/05/06 04:26:20;;;;;;;;;1.33;0.33;;;;;25.43;39.18;101376.22;5078594;28;45364;-84
2023/05/06 04:28:45;;;;;;;;;0.00;0.00;;;;;25.39;39.09;101359.81;5078600;27;45458;-84
2023/05/06 04:31:13;;;;;;;;;2.33;1.00;;;;;25.42;39.29;101370.09;5078982;28;45593;-84
2023/05/06 04:33:38;;;;;;;;;0.67;0.33;;;;;25.42;39.18;101369.25;5077946;27;46895;-84
2023/05/06 04:36:04;;;;;;;;;0.00;0.00;;;;;25.42;39.10;101370.09;5078837;28;45385;-84
2023/05/06 04:38:30;;;;;;;;;1.00;1.00;;;;;25.28;39.22;101347.81;5078834;28;45462;-85
2023/05/06 04:40:56;;;;;;;;;1.33;0.00;;;;;25.10;39.30;101316.31;5078456;27;45424;-85
2023/05/06 04:43:21;;;;;;;;;1.00;1.00;;;;;25.37;38.98;101364.50;5078434;28;46549;-84
2023/05/06 04:45:49;;;;;;;;;2.00;0.00;;;;;25.36;38.83;101363.66;5078704;27;45273;-84
2023/05/06 04:48:20;;;;;;;;;0.67;0.00;;;;;25.42;38.95;101377.25;5077965;28;45260;-84
2023/05/06 04:50:46;;;;;;;;;0.33;0.33;;;;;25.34;38.68;101365.72;5078245;27;45498;-84
2023/05/06 04:53:12;;;;;;;;;0.00;0.00;;;;;25.41;39.15;101379.06;5077996;27;47164;-85
2023/05/06 04:55:38;;;;;;;;;1.00;1.00;;;;;25.31;38.80;101358.09;5078180;27;45480;-84
2023/05/06 04:58:03;;;;;;;;;0.00;0.00;;;;;25.32;39.02;101361.59;5078783;28;45469;-84
2023/05/06 05:00:28;;;;;;;;;0.33;0.33;;;;;25.13;38.82;101331.91;5078653;28;45538;-84
2023/05/06 05:02:54;;;;;;;;;0.00;0.00;;;;;25.36;39.16;101362.84;5077416;28;46201;-84
2023/05/06 05:05:19;;;;;;;;;0.00;0.00;;;;;25.35;39.12;101364.69;5078370;28;45472;-84
2023/05/06 05:07:45;;;;;;;;;0.00;0.00;;;;;25.38;39.57;101372.28;5078245;28;45435;-85
2023/05/06 05:10:10;;;;;;;;;0.67;0.67;;;;;25.30;39.14;101356.44;5077562;28;45311;-85
2023/05/06 05:12:36;;;;;;;;;3.00;1.00;;;;;25.36;39.19;101369.00;5078085;28;47450;-86
2023/05/06 05:15:01;;;;;;;;;1.00;1.00;;;;;25.33;39.19;101364.03;5078146;27;45316;-84
2023/05/06 05:17:27;;;;;;;;;0.00;0.00;;;;;25.40;39.41;101374.75;5077525;27;45410;-84
2023/05/06 05:19:52;;;;;;;;;1.00;1.00;;;;;25.36;39.12;101368.16;5078216;27;45419;-84
2023/05/06 05:22:18;;;;;;;;;0.00;0.00;;;;;25.35;39.01;101366.50;5059785;27;49377;-84
2023/05/06 05:24:43;;;;;;;;;0.00;0.00;;;;;25.26;39.08;101358.66;5059634;28;46283;-84
2023/05/06 05:27:09;;;;;;;;;0.33;0.33;;;;;25.39;39.03;101381.94;5078084;27;45379;-84
2023/05/06 05:29:35;;;;;;;;;1.00;0.00;;;;;25.38;39.07;101385.59;5077732;27;45450;-84
2023/05/06 05:32:00;;;;;;;;;0.00;0.00;;;;;25.35;39.29;101387.81;5076989;27;45573;-84
2023/05/06 05:34:26;;;;;;;;;0.00;0.00;;;;;25.26;38.84;101361.34;5077553;27;45280;-84
2023/05/06 05:36:51;;;;;;;;;2.00;2.00;;;;;25.41;38.84;101392.41;5078114;28;45234;-84
2023/05/06 05:39:17;;;;;;;;;0.33;0.33;;;;;25.31;39.21;101381.22;5077702;28;45463;-84
2023/05/06 05:41:42;;;;;;;;;1.00;1.00;;;;;25.34;38.95;101386.19;5077678;28;45288;-84
2023/05/06 05:44:07;;;;;;;;;0.33;0.33;;;;;25.38;38.92;101390.94;5075771;28;45311;-83
2023/05/06 05:46:33;;;;;;;;;1.00;1.00;;;;;25.28;39.31;101377.94;5077590;28;45468;-84
2023/05/06 05:48:58;;;;;;;;;0.00;0.00;;;;;25.43;38.97;101400.19;5077218;27;45368;-83
2023/05/06 05:51:24;;;;;;;;;0.00;0.00;;;;;25.42;38.89;101398.56;5077134;27;46034;-83
2023/05/06 05:53:50;;;;;;;;;1.00;1.00;;;;;25.42;38.94;101395.88;5076876;27;45308;-84
2023/05/06 05:56:16;;;;;;;;;0.00;0.00;;;;;25.37;38.98;101388.47;5077528;28;45541;-84
2023/05/06 05:58:41;;;;;;;;;0.00;0.00;;;;;25.42;38.97;101388.72;5059136;28;45377;-83
2023/05/06 06:01:06;;;;;;;;;2.00;2.00;;;;;25.42;39.37;101393.22;5069727;27;46617;-83
2023/05/06 06:03:32;;;;;;;;;0.00;0.00;;;;;25.32;39.02;101378.38;5064783;28;45301;-78
2023/05/06 06:05:58;;;;;;;;;2.00;1.00;;;;;25.36;39.13;101386.81;5038685;28;45353;-79
2023/05/06 06:08:23;;;;;;;;;0.33;0.33;;;;;25.32;38.88;101380.22;5056520;28;45381;-80
2023/05/06 06:10:49;;;;;;;;;1.00;1.00;;;;;25.27;38.69;101375.44;5056318;28;46536;-80
2023/05/06 06:13:14;;;;;;;;;1.33;0.33;;;;;25.33;39.00;101388.00;5056330;28;45310;-79
2023/05/06 06:15:40;;;;;;;;;0.33;0.33;;;;;25.27;39.05;101372.78;5056294;28;45379;-83
2023/05/06 06:18:07;;;;;;;;;1.00;1.00;;;;;25.42;39.21;101388.72;5056490;28;45371;-80
2023/05/06 06:20:33;;;;;;;;;1.00;1.00;;;;;25.42;38.81;101391.41;5054839;28;45366;-81
2023/05/06 06:22:58;;;;;;;;;0.00;0.00;;;;;25.38;39.36;101398.09;5055982;28;45405;-84
2023/05/06 06:25:24;;;;;;;;;1.00;1.00;;;;;25.42;39.18;101393.22;5056525;28;45619;-80
2023/05/06 06:27:49;;;;;;;;;1.00;1.00;;;;;25.44;39.35;101400.00;5056173;28;45303;-79
2023/05/06 06:30:15;;;;;;;;;1.00;1.00;;;;;25.42;39.21;101399.38;5055644;28;45376;-80
2023/05/06 06:32:48;;;;;;;;;0.33;0.00;;;;;25.35;39.16;101387.81;5062001;28;45355;-80
2023/05/06 06:35:14;;;;;;;;;1.00;1.00;;;;;25.45;39.15;101398.19;5076389;28;45312;-81
2023/05/06 06:37:39;;;;;;;;;2.00;1.00;;;;;25.35;38.90;101391.31;5076282;28;45480;-85
2023/05/06 06:40:05;;;;;;;;;2.00;0.67;;;;;25.40;39.01;101396.91;5076075;28;46365;-78
2023/05/06 06:42:31;;;;;;;;;0.33;0.33;;;;;25.47;39.37;101415.63;5075992;28;45482;-83
2023/05/06 06:44:56;;;;;;;;;0.33;0.33;;;;;25.48;39.01;101409.25;5076196;27;45482;-80
2023/05/06 06:47:21;;;;;;;;;2.00;1.33;;;;;25.41;39.47;101397.72;5076280;28;45368;-79
2023/05/06 06:49:47;;;;;;;;;1.33;1.00;;;;;25.51;38.95;101405.38;5075972;28;45469;-78
2023/05/06 06:52:12;;;;;;;;;0.67;0.67;;;;;25.53;39.24;101406.03;5075915;28;45484;-80
2023/05/06 06:54:37;;;;;;;;;0.33;0.33;;;;;25.51;39.28;101411.56;5076002;27;45315;-76
2023/05/06 06:57:04;;;;;;;;;0.67;0.67;;;;;25.45;39.13;101400.84;5075644;28;45262;-78
2023/05/06 06:59:30;;;;;;;;;1.00;1.00;;;;;25.47;39.30;101398.81;5074720;28;46245;-79
2023/05/06 07:01:55;;;;;;;;;0.33;0.33;;;;;25.56;39.28;101418.97;5056598;28;45365;-77
2023/05/06 07:04:20;;;;;;;;;0.00;0.00;;;;;25.51;39.33;101403.56;5074945;28;45446;-78
2023/05/06 07:06:46;;;;;;;;;0.67;0.67;;;;;25.58;39.36;101418.78;5075794;28;45439;-80
2023/05/06 07:09:12;;;;;;;;;0.33;0.33;;;;;25.48;39.78;101401.28;5075968;28;46874;-82
2023/05/06 07:11:37;;;;;;;;;0.33;0.33;;;;;25.56;39.56;101415.47;5074270;28;45406;-79
2023/05/06 07:14:03;;;;;;;;;0.33;0.33;;;;;25.65;39.35;101433.00;5075150;28;45450;-80
2023/05/06 07:16:28;;;;;;;;;0.00;0.00;;;;;25.55;39.40;101414.66;5074984;28;45585;-80
2023/05/06 07:18:53;;;;;;;;;1.33;1.33;;;;;25.61;39.25;101429.88;5073842;28;46023;-80
2023/05/06 07:21:19;;;;;;;;;1.00;1.00;;;;;25.68;39.64;101434.47;5074070;28;45547;-80
2023/05/06 07:23:44;;;;;;;;;0.00;0.00;;;;;25.69;39.18;101436.09;5075503;28;45706;-78
2023/05/06 07:26:09;;;;;;;;;0.33;0.33;;;;;25.61;39.06;101415.72;5075142;28;45424;-79
2023/05/06 07:28:35;;;;;;;;;2.00;0.33;;;;;25.62;39.20;101417.38;5075541;28;45395;-78
2023/05/06 07:31:00;;;;;;;;;0.00;0.00;;;;;25.61;38.97;101416.56;5074869;28;45369;-80
2023/05/06 07:33:25;;;;;;;;;3.00;0.00;;;;;25.63;39.01;101409.19;5078638;28;45401;-79
2023/05/06 07:35:53;;;;;;;;;2.00;0.33;;;;;25.58;39.17;101400.94;5078752;28;45566;-79
2023/05/06 07:38:22;;;;;;;;;0.33;0.33;;;;;25.67;38.95;101406.97;5078922;27;45492;-79
2023/05/06 07:40:48;;;;;;;;;0.33;0.33;;;;;25.58;39.37;101395.63;5078580;28;45287;-79
2023/05/06 07:43:14;;;;;;;;;0.00;0.00;;;;;25.78;39.17;101415.50;5078806;28;45471;-81
2023/05/06 07:45:40;;;;;;;;;1.00;1.00;;;;;25.76;39.22;101404.22;5079003;27;45317;-79
2023/05/06 07:48:05;;;;;;;;;0.33;0.33;;;;;25.76;39.27;101418.38;5078477;28;45321;-79
2023/05/06 07:50:30;;;;;;;;;3.00;0.33;;;;;25.73;39.30;101394.72;5060775;28;45410;-79
2023/05/06 07:52:56;;;;;;;;;0.00;0.00;;;;;25.69;39.08;101388.13;5078980;28;45222;-75
2023/05/06 07:55:22;;;;;;;;;1.33;0.00;;;;;25.84;39.19;101409.41;5077839;27;45366;-82
2023/05/06 07:57:48;;;;;;;;;0.33;0.33;;;;;25.85;39.35;101411.03;5078628;28;46499;-76
2023/05/06 08:00:14;;;;;;;;;0.00;0.00;;;;;25.88;39.16;101420.50;5078768;27;45355;-76
2023/05/06 08:02:43;;;;;;;;;1.00;1.00;;;;;25.87;39.28;101425.00;5078641;28;45323;-78
2023/05/06 08:05:12;;;;;;;;;0.00;0.00;;;;;25.70;39.01;101401.28;5078844;27;45419;-79
2023/05/06 08:07:40;;;;;;;;;0.00;0.00;;;;;25.91;38.70;101428.13;5078612;27;46456;-86
2023/05/06 08:10:06;;;;;;;;;0.00;0.00;;;;;25.71;39.36;101397.56;5077989;28;45430;-80
2023/05/06 08:12:31;;;;;;;;;2.00;0.00;;;;;25.91;39.10;101430.78;5078516;28;45258;-78
2023/05/06 08:14:57;;;;;;;;;0.00;0.00;;;;;25.77;38.77;101408.50;5078486;28;45289;-79
2023/05/06 08:17:22;;;;;;;;;0.67;0.00;;;;;25.82;39.08;101422.91;5078712;27;46204;-83
2023/05/06 08:19:48;;;;;;;;;1.33;0.00;;;;;25.64;38.76;101399.34;5060576;28;46184;-76
2023/05/06 08:22:15;;;;;;;;;3.00;1.00;;;;;25.92;38.84;101430.56;5078583;27;45352;-80
2023/05/06 08:24:40;;;;;;;;;1.00;0.00;;;;;25.90;39.13;101416.63;5078091;27;45237;-81
2023/05/06 08:27:05;;;;;;;;;2.33;1.00;;;;;25.95;38.98;101422.19;5078286;28;45354;-80
2023/05/06 08:29:31;;;;;;;;;0.00;0.00;;;;;25.95;39.00;101416.88;5078227;28;45415;-80
2023/05/06 08:31:56;;;;;;;;;0.00;0.00;;;;;25.66;39.00;101369.88;5078623;28;45387;-80
2023/05/06 08:34:22;;;;;;;;;0.00;0.00;;;;;25.97;39.15;101416.66;5077849;27;45492;-80
2023/05/06 08:36:48;;;;;;;;;0.00;0.00;;;;;25.90;38.88;101410.47;5078182;28;45760;-76
2023/05/06 08:39:13;;;;;;;;;0.67;0.00;;;;;25.85;39.01;101395.06;5077784;27;45317;-80
2023/05/06 08:41:40;;;;;;;;;2.00;0.67;;;;;25.69;38.86;101366.81;5078516;27;45305;-75
2023/05/06 08:44:06;;;;;;;;;1.33;0.00;;;;;25.98;38.92;101421.00;5076870;27;45415;-78
2023/05/06 08:46:33;;;;;;;;;1.00;1.00;;;;;25.98;38.87;101429.00;5076633;27;47533;-78
2023/05/06 08:48:59;;;;;;;;;1.00;1.00;;;;;25.75;38.90;101387.41;5077069;28;45510;-79
2023/05/06 08:51:31;;;;;;;;;0.00;0.00;;;;;25.94;38.48;101419.75;5077742;28;45387;-75
2023/05/06 08:54:02;;;;;;;;;3.33;1.00;;;;;25.78;38.12;101389.69;5077346;27;45562;-79
2023/05/06 08:56:31;;;;;;;;;2.67;0.33;;;;;25.71;38.23;101386.13;5077696;28;45304;-76
2023/05/06 08:58:57;;;;;;;;;5.00;0.00;;;;;25.68;38.61;101391.81;5077775;28;45345;-76
2023/05/06 09:01:26;;;;;;;;;2.00;0.67;;;;;25.78;38.55;101407.50;5077903;27;45344;-76
2023/05/06 09:03:51;;;;;;;;;1.67;1.67;;;;;25.64;37.68;101407.34;5077717;28;45532;-78
2023/05/06 09:06:20;;;;;;;;;1.67;1.00;;;;;25.71;38.29;101418.88;5052382;28;46927;-79
2023/05/06 09:08:46;;;;;;;;;1.33;0.67;;;;;25.67;38.19;101419.47;5059978;28;45404;-80
2023/05/06 09:11:25;;;;;;;;;0.67;0.33;;;;;25.63;38.27;101419.84;5057555;28;45231;-81
2023/05/06 09:14:07;;;;;;;;;1.33;0.67;;;;;25.46;38.03;101399.81;5067729;28;45520;-75
2023/05/06 09:16:32;;;;;;;;;3.00;1.33;;;;;25.43;38.15;101418.84;5077284;28;46150;-75
2023/05/06 09:18:58;;;;;;;;;1.67;0.33;;;;;25.28;38.12;101417.88;5077286;27;45356;-76
2023/05/06 09:21:46;;;;;;;;;2.00;2.00;;;;;25.14;38.18;101414.25;5059397;28;45348;-76
2023/05/06 09:24:13;;;;;;;;;5.00;3.00;;;;;25.04;38.50;101421.69;5077256;27;45617;-76
2023/05/06 09:26:41;;;;;;;;;1.00;1.00;;;;;24.85;38.11;101392.78;5077350;28;45385;-76
2023/05/06 09:29:07;;;;;;;;;7.00;1.67;;;;;24.82;38.61;101403.84;5077336;27;45304;-77
2023/05/06 09:31:32;;;;;;;;;4.33;3.00;;;;;24.70;38.89;101405.28;5077363;27;45397;-76
2023/05/06 09:33:59;;;;;;;;;2.67;2.67;;;;;24.65;38.55;101413.81;5077305;27;45486;-76
2023/05/06 09:36:27;;;;;;;;;1.67;1.67;;;;;24.59;38.79;101409.25;5076820;28;46564;-77
2023/05/06 09:38:54;;;;;;;;;4.00;2.67;;;;;24.52;38.84;101407.31;5076895;28;45367;-74
2023/05/06 09:41:21;;;;;;;;;3.00;1.67;;;;;24.46;39.18;101407.25;5077174;28;45364;-76
2023/05/06 09:43:48;;;;;;;;;6.67;2.00;;;;;24.38;39.31;101403.63;5077078;28;45348;-77
2023/05/06 09:46:16;;;;;;;;;2.00;2.00;;;;;24.22;39.26;101398.47;5076859;28;46153;-75
2023/05/06 09:48:42;;;;;;;;;4.00;2.33;;;;;24.26;39.80;101421.88;5076943;27;45442;-75
2023/05/06 09:51:07;;;;;;;;;2.00;2.00;;;;;24.20;39.85;101419.09;5076757;27;45943;-75
2023/05/06 09:53:35;;;;;;;;;3.00;3.00;;;;;24.15;39.84;101409.00;5076847;27;45362;-75
2023/05/06 09:56:02;;;;;;;;;3.00;3.00;;;;;24.09;40.08;101415.06;5076811;27;47004;-75
2023/05/06 09:58:29;;;;;;;;;2.67;2.67;;;;;24.03;39.93;101412.09;5076852;27;45351;-75
2023/05/06 10:00:56;;;;;;;;;3.00;2.00;;;;;23.98;40.34;101408.31;5076909;28;45301;-75
2023/05/06 10:03:23;;;;;;;;;2.33;1.00;;;;;23.92;40.23;101399.22;5058612;28;45356;-76
2023/05/06 10:05:49;;;;;;;;;2.00;2.00;;;;;23.85;40.47;101386.69;5076227;28;45347;-75
2023/05/06 10:08:17;;;;;;;;;2.00;2.00;;;;;23.88;40.54;101393.47;5076571;28;45703;-76
2023/05/06 10:10:45;;;;;;;;;1.67;1.33;;;;;23.85;41.00;101393.81;5076763;27;45282;-74
2023/05/06 10:13:12;;;;;;;;;2.67;1.67;;;;;23.78;40.82;101393.72;5076698;27;45296;-74
2023/05/06 10:15:38;;;;;;;;;3.33;3.00;;;;;23.78;41.04;101401.69;5076429;28;46178;-80
2023/05/06 10:18:04;;;;;;;;;4.67;2.00;;;;;23.66;40.97;101380.03;5076652;28;45381;-79
2023/05/06 10:20:32;;;;;;;;;2.00;2.00;;;;;23.74;41.29;101398.56;5076386;28;45431;-80
2023/05/06 10:23:24;;;;;;;;;5.00;2.00;;;;;23.73;41.03;101399.56;5076512;27;45483;-80
2023/05/06 10:25:55;;;;;;;;;2.00;2.00;;;;;23.41;41.68;101350.97;5076422;28;47158;-79
2023/05/06 10:28:21;;;;;;;;;1.33;1.33;;;;;23.67;41.24;101399.44;5076209;28;45427;-80
2023/05/06 10:30:48;;;;;;;;;2.00;1.67;;;;;23.57;41.35;101392.56;5058399;28;45466;-79
2023/05/06 10:33:15;;;;;;;;;2.00;1.00;;;;;23.61;41.46;101400.97;5076480;28;45443;-79
2023/05/06 10:35:40;;;;;;;;;0.00;0.00;;;;;23.59;41.78;101392.38;5075774;28;46442;-79
2023/05/06 10:38:23;;;;;;;;;4.00;2.00;;;;;23.58;41.60;101401.31;5076293;28;45353;-75
2023/05/06 10:40:50;;;;;;;;;2.33;0.33;;;;;23.56;41.97;101401.50;5076170;27;45301;-72
2023/05/06 10:43:28;;;;;;;;;1.33;1.00;;;;;23.58;41.56;101401.31;5076158;28;45324;-75
2023/05/06 10:46:10;;;;;;;;;1.67;1.67;;;;;23.57;41.80;101402.34;5075853;28;46368;-74
2023/05/06 10:48:38;;;;;;;;;4.67;2.67;;;;;23.45;41.73;101380.63;5076136;28;45355;-75
2023/05/06 10:51:12;;;;;;;;;1.67;1.00;;;;;23.53;41.63;101399.22;5075682;27;45522;-74
2023/05/06 10:54:01;;;;;;;;;4.00;1.00;;;;;23.51;41.17;101401.22;5075832;27;45459;-73
2023/05/06 10:56:30;;;;;;;;;1.00;0.67;;;;;23.54;41.76;101392.06;5074668;28;45381;-74
2023/05/06 10:58:56;;;;;;;;;2.00;2.00;;;;;23.62;41.99;101394.69;5075589;28;45397;-75
2023/05/06 11:01:26;;;;;;;;;2.67;1.67;;;;;23.62;42.05;101376.09;5075588;27;45442;-76
2023/05/06 11:03:51;;;;;;;;;4.33;1.00;;;;;23.84;42.03;101385.03;5070369;28;45952;-76
2023/05/06 11:06:40;;;;;;;;;5.00;2.67;;;;;23.99;42.00;101397.53;5073690;28;46576;-74
2023/05/06 11:09:05;;;;;;;;;2.00;1.00;;;;;24.11;41.80;101392.59;5055243;28;45449;-75
2023/05/06 11:11:51;;;;;;;;;5.33;2.00;;;;;24.24;41.52;101393.78;5055397;28;45395;-78
2023/05/06 11:14:36;;;;;;;;;0.00;0.00;;;;;24.33;41.36;101382.09;5055633;28;45381;-80
2023/05/06 11:17:06;;;;;;;;;5.00;1.00;;;;;24.40;41.30;101379.53;5055448;28;46397;-76
2023/05/06 11:19:36;;;;;;;;;3.67;2.00;;;;;24.50;41.06;101390.72;5054930;28;45380;-80
2023/05/06 11:22:04;;;;;;;;;2.67;2.67;;;;;24.52;41.08;101382.56;5063086;28;45572;-79
2023/05/06 11:24:38;;;;;;;;;1.00;1.00;;;;;24.62;40.93;101385.75;5075045;28;45485;-78